createdAt,value
2017-09-24T00:00:49.611Z,16.79
2017-09-24T00:01:50.086Z,16.78
2017-09-24T00:02:48.129Z,16.75
2017-09-24T00:03:51.058Z,16.76
2017-09-24T00:04:49.639Z,16.76
2017-09-24T00:05:47.844Z,16.76
2017-09-24T00:06:47.874Z,16.76
2017-09-24T00:07:47.891Z,16.79
2017-09-24T00:08:47.914Z,16.81
2017-09-24T00:09:47.932Z,16.79
2017-09-24T00:10:47.952Z,16.78
2017-09-24T00:11:48.355Z,16.75
2017-09-24T00:12:49.076Z,16.79
2017-09-24T00:13:49.197Z,16.81
2017-09-24T00:14:48.828Z,16.94
2017-09-24T00:15:48.852Z,16.89
2017-09-24T00:16:49.214Z,16.81
2017-09-24T00:17:50.517Z,16.79
2017-09-24T00:19:00.874Z,16.81
2017-09-24T00:19:48.235Z,16.76
2017-09-24T00:20:49.353Z,16.75
2017-09-24T00:21:49.277Z,16.68
2017-09-24T00:22:49.080Z,16.75
2017-09-24T00:23:49.726Z,16.74
2017-09-24T00:24:49.128Z,16.84
2017-09-24T00:25:49.318Z,17.02
2017-09-24T00:26:49.130Z,16.94
2017-09-24T00:27:48.325Z,16.87
2017-09-24T00:28:48.348Z,16.89
2017-09-24T00:29:48.368Z,16.86
2017-09-24T00:30:48.554Z,16.93
2017-09-24T00:31:48.410Z,16.89
2017-09-24T00:32:48.431Z,16.87
2017-09-24T00:33:48.453Z,16.96
2017-09-24T00:34:48.479Z,16.93
2017-09-24T00:35:48.506Z,16.89
2017-09-24T00:36:50.683Z,16.87
2017-09-24T00:37:48.549Z,16.81
2017-09-24T00:38:48.562Z,16.76
2017-09-24T00:39:48.592Z,16.79
2017-09-24T00:40:48.616Z,16.72
2017-09-24T00:41:48.636Z,16.75
2017-09-24T00:42:48.964Z,16.75
2017-09-24T00:43:48.675Z,16.74
2017-09-24T00:44:48.744Z,16.76
2017-09-24T00:45:48.727Z,16.69
2017-09-24T00:46:48.753Z,16.71
2017-09-24T00:47:49.075Z,16.68
2017-09-24T00:48:49.102Z,16.71
2017-09-24T00:49:48.820Z,16.66
2017-09-24T00:50:48.830Z,16.54
2017-09-24T00:51:48.846Z,16.72
2017-09-24T00:52:48.876Z,16.56
2017-09-24T00:53:48.891Z,16.58
2017-09-24T00:54:48.921Z,16.66
2017-09-24T00:55:48.940Z,16.69
2017-09-24T00:56:49.268Z,16.66
2017-09-24T00:57:48.975Z,16.76
2017-09-24T00:58:49.531Z,16.66
2017-09-24T00:59:49.069Z,16.61
2017-09-24T01:00:49.054Z,16.58
2017-09-24T01:01:49.068Z,16.65
2017-09-24T01:02:49.090Z,16.54
2017-09-24T01:03:49.118Z,16.69
2017-09-24T01:04:49.131Z,16.61
2017-09-24T01:05:49.151Z,16.64
2017-09-24T01:06:49.175Z,16.65
2017-09-24T01:07:49.204Z,16.65
2017-09-24T01:08:49.217Z,16.69
2017-09-24T01:09:49.252Z,16.61
2017-09-24T01:10:49.263Z,16.6
2017-09-24T01:11:49.285Z,16.68
2017-09-24T01:12:49.312Z,16.65
2017-09-24T01:13:49.333Z,16.6
2017-09-24T01:14:49.352Z,16.54
2017-09-24T01:15:49.394Z,16.56
2017-09-24T01:16:49.422Z,16.54
2017-09-24T01:17:49.649Z,16.5
2017-09-24T01:18:49.435Z,16.38
2017-09-24T01:19:49.487Z,16.42
2017-09-24T01:20:49.509Z,16.41
2017-09-24T01:21:49.498Z,16.41
2017-09-24T01:22:49.525Z,16.33
2017-09-24T01:23:49.544Z,16.41
2017-09-24T01:24:49.610Z,16.42
2017-09-24T01:25:49.947Z,16.47
2017-09-24T01:26:49.643Z,16.46
2017-09-24T01:27:49.967Z,16.38
2017-09-24T01:28:49.659Z,16.43
2017-09-24T01:29:49.678Z,16.41
2017-09-24T01:30:50.884Z,16.42
2017-09-24T01:31:49.754Z,16.47
2017-09-24T01:32:49.757Z,16.41
2017-09-24T01:33:49.809Z,16.41
2017-09-24T01:34:49.993Z,16.42
2017-09-24T01:35:49.830Z,16.32
2017-09-24T01:36:49.824Z,16.32
2017-09-24T01:37:49.880Z,16.29
2017-09-24T01:38:49.898Z,16.36
2017-09-24T01:39:49.930Z,16.38
2017-09-24T01:40:49.915Z,16.31
2017-09-24T01:41:49.932Z,16.35
2017-09-24T01:42:49.963Z,16.31
2017-09-24T01:43:50.173Z,16.41
2017-09-24T01:44:49.995Z,16.33
2017-09-24T01:45:50.024Z,16.21
2017-09-24T01:46:50.038Z,16.33
2017-09-24T01:47:50.378Z,16.23
2017-09-24T01:48:50.145Z,16.21
2017-09-24T01:49:50.130Z,16.23
2017-09-24T01:50:50.132Z,16.24
2017-09-24T01:51:50.146Z,16.15
2017-09-24T01:52:50.167Z,16.23
2017-09-24T01:53:50.193Z,16.28
2017-09-24T01:54:50.214Z,16.17
2017-09-24T01:55:50.541Z,16.28
2017-09-24T01:56:50.254Z,16.2
2017-09-24T01:57:50.277Z,16.28
2017-09-24T01:58:50.302Z,16.23
2017-09-24T01:59:50.315Z,16.21
2017-09-24T02:00:50.337Z,16.2
2017-09-24T02:01:50.369Z,16.26
2017-09-24T02:02:54.273Z,16.24
2017-09-24T02:03:50.765Z,16.21
2017-09-24T02:04:50.430Z,16.1
2017-09-24T02:05:50.448Z,16.08
2017-09-24T02:06:50.469Z,16
2017-09-24T02:07:50.490Z,16.09
2017-09-24T02:08:50.509Z,16.12
2017-09-24T02:09:50.545Z,16.05
2017-09-24T02:10:50.560Z,16.04
2017-09-24T02:11:50.586Z,16.05
2017-09-24T02:12:50.602Z,16
2017-09-24T02:13:50.620Z,15.94
2017-09-24T02:14:50.641Z,15.98
2017-09-24T02:15:50.970Z,16.13
2017-09-24T02:16:50.687Z,16.1
2017-09-24T02:17:50.702Z,16.09
2017-09-24T02:18:50.733Z,16.13
2017-09-24T02:19:50.747Z,16.1
2017-09-24T02:20:50.815Z,16.05
2017-09-24T02:21:51.103Z,16.16
2017-09-24T02:22:50.809Z,16.13
2017-09-24T02:23:50.833Z,16.1
2017-09-24T02:24:50.852Z,16.1
2017-09-24T02:25:50.877Z,16.05
2017-09-24T02:26:50.945Z,16.1
2017-09-24T02:27:51.238Z,16.2
2017-09-24T02:28:50.942Z,16.15
2017-09-24T02:29:50.960Z,16.1
2017-09-24T02:30:51.313Z,16.17
2017-09-24T02:31:51.037Z,16.2
2017-09-24T02:32:51.392Z,16.23
2017-09-24T02:33:51.048Z,16.17
2017-09-24T02:34:51.088Z,16.17
2017-09-24T02:35:51.083Z,16.21
2017-09-24T02:36:51.140Z,16.28
2017-09-24T02:37:51.179Z,16.2
2017-09-24T02:38:51.152Z,16.29
2017-09-24T02:39:51.493Z,16.28
2017-09-24T02:40:51.193Z,16.31
2017-09-24T02:41:51.219Z,16.24
2017-09-24T02:42:51.242Z,16.24
2017-09-24T02:43:51.266Z,16.24
2017-09-24T02:44:51.277Z,16.28
2017-09-24T02:45:51.306Z,16.32
2017-09-24T02:46:51.321Z,16.26
2017-09-24T02:47:51.350Z,16.35
2017-09-24T02:48:51.365Z,16.36
2017-09-24T02:49:51.385Z,16.36
2017-09-24T02:50:51.722Z,16.38
2017-09-24T02:51:51.426Z,16.29
2017-09-24T02:52:51.447Z,16.29
2017-09-24T02:53:51.472Z,16.2
2017-09-24T02:54:51.549Z,16.23
2017-09-24T02:55:51.523Z,16.2
2017-09-24T02:56:51.550Z,16.2
2017-09-24T02:57:51.558Z,16.21
2017-09-24T02:58:51.579Z,16.2
2017-09-24T02:59:51.612Z,16.28
2017-09-24T03:00:51.623Z,16.21
2017-09-24T03:01:51.959Z,16.12
2017-09-24T03:02:51.666Z,15.98
2017-09-24T03:03:51.689Z,16
2017-09-24T03:04:51.712Z,15.95
2017-09-24T03:05:51.733Z,16
2017-09-24T03:06:51.754Z,16.05
2017-09-24T03:07:51.770Z,16.12
2017-09-24T03:08:52.109Z,16.13
2017-09-24T03:09:51.866Z,16.2
2017-09-24T03:10:51.839Z,16.17
2017-09-24T03:11:51.866Z,16.12
2017-09-24T03:12:51.888Z,16.13
2017-09-24T03:13:51.916Z,15.91
2017-09-24T03:14:51.921Z,15.98
2017-09-24T03:15:51.950Z,15.97
2017-09-24T03:16:51.971Z,15.95
2017-09-24T03:17:51.991Z,16
2017-09-24T03:18:52.056Z,15.97
2017-09-24T03:19:52.051Z,16
2017-09-24T03:20:52.054Z,15.97
2017-09-24T03:21:52.074Z,15.97
2017-09-24T03:22:52.097Z,15.83
2017-09-24T03:23:52.117Z,15.9
2017-09-24T03:24:52.142Z,15.92
2017-09-24T03:25:52.541Z,15.97
2017-09-24T03:26:52.463Z,15.91
2017-09-24T03:27:52.202Z,15.95
2017-09-24T03:28:52.225Z,15.95
2017-09-24T03:29:52.245Z,15.95
2017-09-24T03:30:52.322Z,16.02
2017-09-24T03:31:52.294Z,16.04
2017-09-24T03:32:52.310Z,16.09
2017-09-24T03:33:52.367Z,16.05
2017-09-24T03:34:52.480Z,16.09
2017-09-24T03:35:52.378Z,16.05
2017-09-24T03:36:52.419Z,16.02
2017-09-24T03:37:52.415Z,16.04
2017-09-24T03:38:52.444Z,15.98
2017-09-24T03:39:52.470Z,15.95
2017-09-24T03:40:52.489Z,15.98
2017-09-24T03:41:52.506Z,16.02
2017-09-24T03:42:52.527Z,15.97
2017-09-24T03:43:52.545Z,16
2017-09-24T03:44:52.572Z,15.92
2017-09-24T03:45:52.590Z,15.95
2017-09-24T03:46:52.610Z,15.84
2017-09-24T03:47:52.631Z,15.92
2017-09-24T03:48:52.665Z,15.84
2017-09-24T03:49:52.683Z,15.88
2017-09-24T03:50:52.696Z,15.8
2017-09-24T03:51:52.718Z,15.82
2017-09-24T03:52:53.418Z,15.72
2017-09-24T03:53:52.765Z,15.76
2017-09-24T03:54:52.785Z,15.72
2017-09-24T03:55:52.851Z,15.55
2017-09-24T03:56:53.150Z,15.51
2017-09-24T03:57:52.854Z,15.44
2017-09-24T03:58:52.884Z,15.57
2017-09-24T03:59:52.889Z,15.55
2017-09-24T04:00:52.959Z,15.55
2017-09-24T04:01:52.933Z,15.58
2017-09-24T04:02:53.265Z,15.55
2017-09-24T04:03:52.979Z,15.59
2017-09-24T04:04:53.003Z,15.54
2017-09-24T04:05:53.025Z,15.55
2017-09-24T04:06:53.357Z,15.54
2017-09-24T04:07:53.065Z,15.61
2017-09-24T04:08:53.079Z,15.64
2017-09-24T04:09:53.105Z,15.61
2017-09-24T04:10:53.438Z,15.57
2017-09-24T04:11:53.150Z,15.58
2017-09-24T04:12:53.172Z,15.54
2017-09-24T04:13:53.191Z,15.61
2017-09-24T04:14:53.211Z,15.52
2017-09-24T04:15:53.232Z,15.54
2017-09-24T04:16:53.256Z,15.57
2017-09-24T04:17:53.285Z,15.57
2017-09-24T04:18:53.295Z,15.46
2017-09-24T04:19:53.677Z,15.4
2017-09-24T04:20:53.342Z,15.54
2017-09-24T04:21:53.356Z,15.4
2017-09-24T04:22:53.377Z,15.46
2017-09-24T04:23:53.396Z,15.43
2017-09-24T04:24:53.418Z,15.36
2017-09-24T04:25:53.753Z,15.4
2017-09-24T04:26:53.464Z,15.39
2017-09-24T04:27:53.485Z,15.35
2017-09-24T04:28:53.507Z,15.35
2017-09-24T04:29:53.529Z,15.31
2017-09-24T04:30:53.548Z,15.22
2017-09-24T04:31:53.570Z,15.18
2017-09-24T04:32:53.905Z,15.14
2017-09-24T04:33:53.924Z,15.18
2017-09-24T04:34:53.640Z,15.24
2017-09-24T04:35:53.648Z,15.25
2017-09-24T04:36:53.672Z,15.36
2017-09-24T04:37:53.709Z,15.29
2017-09-24T04:38:53.762Z,15.33
2017-09-24T04:39:53.742Z,15.21
2017-09-24T04:40:54.063Z,15.27
2017-09-24T04:41:53.778Z,15.24
2017-09-24T04:42:53.794Z,15.24
2017-09-24T04:43:53.818Z,15.11
2017-09-24T04:44:53.843Z,15.17
2017-09-24T04:45:53.859Z,15.1
2017-09-24T04:46:53.878Z,15.14
2017-09-24T04:47:53.899Z,15.14
2017-09-24T04:48:53.924Z,15.18
2017-09-24T04:49:53.948Z,15.14
2017-09-24T04:50:53.964Z,15.15
2017-09-24T04:51:53.984Z,15.07
2017-09-24T04:52:54.005Z,15.09
2017-09-24T04:53:54.074Z,15.1
2017-09-24T04:54:54.046Z,15.04
2017-09-24T04:55:54.067Z,14.97
2017-09-24T04:56:54.089Z,14.96
2017-09-24T04:57:54.420Z,15.06
2017-09-24T04:58:54.136Z,15.03
2017-09-24T04:59:54.181Z,15.07
2017-09-24T05:00:54.173Z,15.17
2017-09-24T05:01:54.194Z,15.06
2017-09-24T05:02:54.209Z,15.09
2017-09-24T05:03:54.232Z,14.96
2017-09-24T05:04:54.567Z,15
2017-09-24T05:05:54.592Z,14.96
2017-09-24T05:06:54.610Z,14.94
2017-09-24T05:07:54.393Z,15
2017-09-24T05:08:54.347Z,15.06
2017-09-24T05:09:54.368Z,14.96
2017-09-24T05:10:54.381Z,14.85
2017-09-24T05:11:54.407Z,14.96
2017-09-24T05:12:54.421Z,14.84
2017-09-24T05:13:54.441Z,14.81
2017-09-24T05:14:54.471Z,14.82
2017-09-24T05:15:54.496Z,14.86
2017-09-24T05:16:54.502Z,14.91
2017-09-24T05:17:54.844Z,14.89
2017-09-24T05:18:54.545Z,14.88
2017-09-24T05:19:54.572Z,14.85
2017-09-24T05:20:54.583Z,14.86
2017-09-24T05:21:54.604Z,14.86
2017-09-24T05:22:54.630Z,14.91
2017-09-24T05:23:54.645Z,14.85
2017-09-24T05:24:54.669Z,14.85
2017-09-24T05:25:54.688Z,14.92
2017-09-24T05:26:55.025Z,14.82
2017-09-24T05:27:54.737Z,14.89
2017-09-24T05:28:54.752Z,15.04
2017-09-24T05:29:54.774Z,15.03
2017-09-24T05:30:54.799Z,15.04
2017-09-24T05:31:54.865Z,15.04
2017-09-24T05:32:54.835Z,15.09
2017-09-24T05:33:54.854Z,15.04
2017-09-24T05:34:54.882Z,15.04
2017-09-24T05:35:54.895Z,15.06
2017-09-24T05:36:55.226Z,15.11
2017-09-24T05:37:54.958Z,15.09
2017-09-24T05:38:54.967Z,15.07
2017-09-24T05:39:54.984Z,15.03
2017-09-24T05:40:55.001Z,15.04
2017-09-24T05:41:55.019Z,15.11
2017-09-24T05:42:55.054Z,15.07
2017-09-24T05:43:55.377Z,15.1
2017-09-24T05:44:55.084Z,15.14
2017-09-24T05:45:55.103Z,15.14
2017-09-24T05:46:55.122Z,15.11
2017-09-24T05:47:55.148Z,15.09
2017-09-24T05:48:55.218Z,15.15
2017-09-24T05:49:55.187Z,15.18
2017-09-24T05:50:55.205Z,15.14
2017-09-24T05:51:55.230Z,15.19
2017-09-24T05:52:55.569Z,15.21
2017-09-24T05:53:55.282Z,15.22
2017-09-24T05:54:55.292Z,15.21
2017-09-24T05:55:55.622Z,15.22
2017-09-24T05:56:55.342Z,15.24
2017-09-24T05:57:55.355Z,15.22
2017-09-24T05:58:55.379Z,15.22
2017-09-24T05:59:55.420Z,15.29
2017-09-24T06:00:55.422Z,15.35
2017-09-24T06:01:55.434Z,15.36
2017-09-24T06:02:55.454Z,15.37
2017-09-24T06:03:55.485Z,15.29
2017-09-24T06:04:55.558Z,15.36
2017-09-24T06:05:55.519Z,15.39
2017-09-24T06:06:55.542Z,15.36
2017-09-24T06:07:55.878Z,15.35
2017-09-24T06:08:55.590Z,15.33
2017-09-24T06:09:55.607Z,15.37
2017-09-24T06:10:55.939Z,15.36
2017-09-24T06:11:55.650Z,15.35
2017-09-24T06:12:55.671Z,15.52
2017-09-24T06:13:55.688Z,15.54
2017-09-24T06:14:55.718Z,15.55
2017-09-24T06:15:55.743Z,15.61
2017-09-24T06:16:55.751Z,15.55
2017-09-24T06:17:55.771Z,15.73
2017-09-24T06:18:55.792Z,15.79
2017-09-24T06:19:55.814Z,15.68
2017-09-24T06:20:55.835Z,15.84
2017-09-24T06:21:55.909Z,15.9
2017-09-24T06:22:55.878Z,16
2017-09-24T06:23:55.904Z,15.98
2017-09-24T06:24:55.923Z,15.92
2017-09-24T06:25:55.943Z,15.97
2017-09-24T06:26:55.993Z,16
2017-09-24T06:27:55.989Z,16.02
2017-09-24T06:28:56.006Z,16.13
2017-09-24T06:29:56.031Z,16.26
2017-09-24T06:30:56.047Z,16.26
2017-09-24T06:31:56.075Z,16.31
2017-09-24T06:32:56.093Z,16.35
2017-09-24T06:33:56.116Z,16.41
2017-09-24T06:34:56.138Z,16.42
2017-09-24T06:35:56.159Z,16.56
2017-09-24T06:36:56.226Z,16.61
2017-09-24T06:37:56.207Z,16.66
2017-09-24T06:38:56.221Z,16.71
2017-09-24T06:39:56.243Z,16.78
2017-09-24T06:40:56.265Z,16.84
2017-09-24T06:41:56.284Z,16.89
2017-09-24T06:42:56.646Z,17.08
2017-09-24T06:43:56.331Z,17.12
2017-09-24T06:44:56.362Z,16.97
2017-09-24T06:45:56.376Z,17.02
2017-09-24T06:46:56.393Z,17.12
2017-09-24T06:47:56.417Z,17.23
2017-09-24T06:48:56.447Z,17.3
2017-09-24T06:49:56.460Z,17.38
2017-09-24T06:50:56.480Z,17.34
2017-09-24T06:51:56.507Z,17.41
2017-09-24T06:52:56.528Z,17.45
2017-09-24T06:53:56.549Z,17.52
2017-09-24T06:54:56.579Z,17.54
2017-09-24T06:55:56.627Z,17.68
2017-09-24T06:56:56.615Z,17.71
2017-09-24T06:57:56.644Z,17.76
2017-09-24T06:58:56.664Z,17.79
2017-09-24T06:59:56.688Z,17.76
2017-09-24T07:00:56.709Z,17.71
2017-09-24T07:01:56.751Z,17.86
2017-09-24T07:02:56.753Z,17.87
2017-09-24T07:03:56.783Z,17.86
2017-09-24T07:04:56.801Z,17.89
2017-09-24T07:05:56.824Z,18
2017-09-24T07:06:56.843Z,18
2017-09-24T07:07:56.865Z,18.07
2017-09-24T07:08:57.203Z,18.07
2017-09-24T07:09:56.917Z,18.16
2017-09-24T07:10:56.936Z,18.26
2017-09-24T07:11:56.966Z,18.26
2017-09-24T07:12:56.982Z,18.38
2017-09-24T07:13:57.011Z,18.34
2017-09-24T07:14:57.035Z,18.47
2017-09-24T07:15:57.056Z,18.4
2017-09-24T07:16:57.076Z,18.35
2017-09-24T07:17:57.105Z,18.4
2017-09-24T07:18:57.129Z,18.33
2017-09-24T07:19:57.147Z,18.37
2017-09-24T07:20:57.169Z,18.37
2017-09-24T07:21:57.192Z,18.25
2017-09-24T07:22:57.218Z,18.26
2017-09-24T07:23:57.240Z,18.23
2017-09-24T07:24:57.263Z,18.13
2017-09-24T07:25:57.293Z,18.13
2017-09-24T07:26:57.358Z,18
2017-09-24T07:27:57.341Z,18.13
2017-09-24T07:28:57.360Z,18.25
2017-09-24T07:29:57.388Z,18.15
2017-09-24T07:30:57.403Z,18.07
2017-09-24T07:31:58.331Z,18.03
2017-09-24T07:32:58.257Z,18.01
2017-09-24T07:33:57.479Z,18.08
2017-09-24T07:34:57.492Z,18.07
2017-09-24T07:35:57.522Z,18.01
2017-09-24T07:36:57.537Z,17.98
2017-09-24T07:37:57.562Z,18.01
2017-09-24T07:38:57.588Z,18.03
2017-09-24T07:39:57.614Z,18.1
2017-09-24T07:40:57.634Z,18.18
2017-09-24T07:41:57.652Z,18.19
2017-09-24T07:42:57.685Z,18.18
2017-09-24T07:43:57.760Z,18.15
2017-09-24T07:44:58.036Z,18.28
2017-09-24T07:45:57.744Z,18.38
2017-09-24T07:46:57.773Z,18.4
2017-09-24T07:47:57.792Z,18.52
2017-09-24T07:48:57.828Z,18.47
2017-09-24T07:49:58.186Z,18.45
2017-09-24T07:50:57.868Z,18.52
2017-09-24T07:51:57.885Z,18.44
2017-09-24T07:52:57.961Z,18.59
2017-09-24T07:53:57.937Z,18.63
2017-09-24T07:54:57.954Z,18.73
2017-09-24T07:55:57.980Z,18.81
2017-09-24T07:56:58.308Z,18.89
2017-09-24T07:57:58.092Z,18.93
2017-09-24T07:58:58.048Z,19.07
2017-09-24T07:59:58.073Z,19.02
2017-09-24T08:00:58.095Z,19.07
2017-09-24T08:01:58.118Z,19.07
2017-09-24T08:02:58.466Z,19.19
2017-09-24T08:03:58.165Z,19.19
2017-09-24T08:04:58.191Z,19.14
2017-09-24T08:05:58.212Z,19.34
2017-09-24T08:06:58.236Z,19.34
2017-09-24T08:07:58.259Z,19.51
2017-09-24T08:08:58.287Z,19.58
2017-09-24T08:09:58.313Z,19.74
2017-09-24T08:10:58.646Z,19.71
2017-09-24T08:11:58.353Z,19.77
2017-09-24T08:12:58.375Z,19.81
2017-09-24T08:13:58.434Z,19.76
2017-09-24T08:14:58.423Z,19.81
2017-09-24T08:15:58.488Z,19.59
2017-09-24T08:16:58.783Z,19.56
2017-09-24T08:17:58.548Z,19.67
2017-09-24T08:18:58.515Z,19.69
2017-09-24T08:19:58.852Z,19.7
2017-09-24T08:20:58.565Z,19.67
2017-09-24T08:21:58.595Z,19.71
2017-09-24T08:22:58.932Z,19.81
2017-09-24T08:23:58.955Z,19.74
2017-09-24T08:24:58.666Z,19.67
2017-09-24T08:25:58.686Z,19.63
2017-09-24T08:26:58.718Z,19.79
2017-09-24T08:27:58.738Z,19.86
2017-09-24T08:28:58.754Z,20.04
2017-09-24T08:29:58.779Z,20.19
2017-09-24T08:30:58.799Z,20.29
2017-09-24T08:31:58.831Z,20.32
2017-09-24T08:32:59.105Z,20.21
2017-09-24T08:33:58.874Z,20.18
2017-09-24T08:34:58.922Z,20.26
2017-09-24T08:35:58.921Z,20.29
2017-09-24T08:36:58.949Z,20.41
2017-09-24T08:37:58.981Z,20.43
2017-09-24T08:38:58.994Z,20.63
2017-09-24T08:39:59.023Z,20.6
2017-09-24T08:40:59.051Z,20.72
2017-09-24T08:41:59.091Z,20.74
2017-09-24T08:42:59.093Z,20.75
2017-09-24T08:43:59.115Z,20.69
2017-09-24T08:44:59.139Z,20.82
2017-09-24T08:45:59.162Z,20.84
2017-09-24T08:46:59.189Z,20.87
2017-09-24T08:47:59.427Z,20.84
2017-09-24T08:48:59.241Z,20.7
2017-09-24T08:49:59.278Z,20.74
2017-09-24T08:50:59.351Z,20.75
2017-09-24T08:51:59.316Z,20.87
2017-09-24T08:52:59.338Z,20.95
2017-09-24T08:53:59.412Z,21.07
2017-09-24T08:54:59.387Z,21.11
2017-09-24T08:55:59.422Z,21.17
2017-09-24T08:56:59.901Z,21.15
2017-09-24T08:57:59.462Z,21.03
2017-09-24T08:58:59.484Z,21.18
2017-09-24T08:59:59.547Z,21.3
2017-09-24T09:00:59.540Z,21.39
2017-09-24T09:01:59.562Z,21.4
2017-09-24T09:02:59.645Z,21.51
2017-09-24T09:03:59.654Z,21.51
2017-09-24T09:04:59.634Z,21.67
2017-09-24T09:05:59.668Z,21.75
2017-09-24T09:06:59.742Z,21.75
2017-09-24T09:07:59.714Z,21.77
2017-09-24T09:08:59.740Z,21.83
2017-09-24T09:09:59.762Z,21.82
2017-09-24T09:10:59.795Z,21.72
2017-09-24T09:11:59.819Z,21.72
2017-09-24T09:12:59.837Z,21.6
2017-09-24T09:13:59.868Z,21.66
2017-09-24T09:15:00.202Z,21.82
2017-09-24T09:15:59.915Z,21.89
2017-09-24T09:16:59.938Z,22.06
2017-09-24T09:17:59.962Z,22.08
2017-09-24T09:19:00.041Z,22.2
2017-09-24T09:20:00.100Z,22.25
2017-09-24T09:21:00.965Z,22.32
2017-09-24T09:22:00.076Z,22.26
2017-09-24T09:23:00.110Z,22.33
2017-09-24T09:24:00.129Z,22.38
2017-09-24T09:25:00.447Z,22.53
2017-09-24T09:26:00.171Z,22.51
2017-09-24T09:27:00.198Z,22.66
2017-09-24T09:28:00.215Z,22.76
2017-09-24T09:29:00.248Z,22.8
2017-09-24T09:30:00.296Z,22.83
2017-09-24T09:31:00.294Z,22.75
2017-09-24T09:32:00.328Z,22.65
2017-09-24T09:33:00.709Z,22.81
2017-09-24T09:34:01.116Z,22.83
2017-09-24T09:35:00.707Z,22.96
2017-09-24T09:36:00.970Z,23.15
2017-09-24T09:37:01.795Z,23.23
2017-09-24T09:38:00.948Z,23.32
2017-09-24T09:39:00.896Z,23.5
2017-09-24T09:40:02.399Z,23.37
2017-09-24T09:41:02.576Z,23.54
2017-09-24T09:42:02.678Z,23.65
2017-09-24T09:43:00.610Z,23.8
2017-09-24T09:44:00.635Z,24.02
2017-09-24T09:45:01.136Z,24.33
2017-09-24T09:46:01.132Z,24.48
2017-09-24T09:47:01.085Z,24.48
2017-09-24T09:48:01.097Z,24.4
2017-09-24T09:49:01.583Z,24.48
2017-09-24T09:50:01.014Z,24.61
2017-09-24T09:51:01.167Z,24.84
2017-09-24T09:52:01.528Z,24.74
2017-09-24T09:53:01.247Z,24.84
2017-09-24T09:54:01.320Z,24.93
2017-09-24T09:55:01.598Z,25.11
2017-09-24T09:56:01.456Z,25.41
2017-09-24T09:57:01.514Z,25.69
2017-09-24T09:58:01.465Z,25.96
2017-09-24T09:59:01.529Z,26
2017-09-24T10:00:01.362Z,25.96
2017-09-24T10:01:01.371Z,26.13
2017-09-24T10:02:01.536Z,26.31
2017-09-24T10:03:01.468Z,26.59
2017-09-24T10:04:01.576Z,26.59
2017-09-24T10:05:01.979Z,26.83
2017-09-24T10:06:01.977Z,26.73
2017-09-24T10:07:02.073Z,26.89
2017-09-24T10:08:01.751Z,26.9
2017-09-24T10:09:03.708Z,27.18
2017-09-24T10:10:02.575Z,27.47
2017-09-24T10:11:03.989Z,27.4
2017-09-24T10:12:01.805Z,27.37
2017-09-24T10:13:01.933Z,27.54
2017-09-24T10:14:01.833Z,27.73
2017-09-24T10:15:02.163Z,27.85
2017-09-24T10:16:02.349Z,28.1
2017-09-24T10:17:01.827Z,28.23
2017-09-24T10:18:01.949Z,28.54
2017-09-24T10:19:02.199Z,28.76
2017-09-24T10:20:02.558Z,28.84
2017-09-24T10:21:03.242Z,29.2
2017-09-24T10:22:02.034Z,29.34
2017-09-24T10:23:02.504Z,29.35
2017-09-24T10:24:02.145Z,28.93
2017-09-24T10:25:02.380Z,29.12
2017-09-24T10:26:02.932Z,29.23
2017-09-24T10:27:02.460Z,29.1
2017-09-24T10:28:03.267Z,29.35
2017-09-24T10:29:02.895Z,29.65
2017-09-24T10:30:03.508Z,29.73
2017-09-24T10:31:03.644Z,29.88
2017-09-24T10:32:03.008Z,29.95
2017-09-24T10:33:02.673Z,30.08
2017-09-24T10:34:02.662Z,30.08
2017-09-24T10:35:02.770Z,30.19
2017-09-24T10:36:05.391Z,29.94
2017-09-24T10:37:03.552Z,30.08
2017-09-24T10:38:02.753Z,30.18
2017-09-24T10:39:02.576Z,30.28
2017-09-24T10:40:02.692Z,30.37
2017-09-24T10:41:02.420Z,30.28
2017-09-24T10:42:02.406Z,30.5
2017-09-24T10:43:02.787Z,30.25
2017-09-24T10:44:02.511Z,30.15
2017-09-24T10:45:02.549Z,30.13
2017-09-24T10:46:02.547Z,30.39
2017-09-24T10:47:02.704Z,30.8
2017-09-24T10:48:02.653Z,30.8
2017-09-24T10:49:02.878Z,30.77
2017-09-24T10:50:02.670Z,30.92
2017-09-24T10:51:02.720Z,30.57
2017-09-24T10:52:02.798Z,30.65
2017-09-24T10:53:02.779Z,30.46
2017-09-24T10:54:02.814Z,30.39
2017-09-24T10:55:03.133Z,30.35
2017-09-24T10:56:02.960Z,30.28
2017-09-24T10:57:03.009Z,30.4
2017-09-24T10:58:03.051Z,30.78
2017-09-24T10:59:02.994Z,31.06
2017-09-24T11:00:03.397Z,31.21
2017-09-24T11:01:03.167Z,31.17
2017-09-24T11:02:03.145Z,31.46
2017-09-24T11:03:03.178Z,31.54
2017-09-24T11:04:03.137Z,31.84
2017-09-24T11:05:03.281Z,32.04
2017-09-24T11:06:03.337Z,32.19
2017-09-24T11:07:03.245Z,32.36
2017-09-24T11:08:03.277Z,32.43
2017-09-24T11:09:03.309Z,32.74
2017-09-24T11:10:03.388Z,32.96
2017-09-24T11:11:03.562Z,33.14
2017-09-24T11:12:03.496Z,33.36
2017-09-24T11:13:03.461Z,33.55
2017-09-24T11:14:04.248Z,33.79
2017-09-24T11:15:04.041Z,33.57
2017-09-24T11:16:03.562Z,33.8
2017-09-24T11:17:03.596Z,33.58
2017-09-24T11:18:03.623Z,33.79
2017-09-24T11:19:03.656Z,33.95
2017-09-24T11:20:03.699Z,34.27
2017-09-24T11:21:03.858Z,34.39
2017-09-24T11:22:03.762Z,34.42
2017-09-24T11:23:03.809Z,34.62
2017-09-24T11:24:03.902Z,34.93
2017-09-24T11:25:03.868Z,35.17
2017-09-24T11:26:03.917Z,35.18
2017-09-24T11:27:03.948Z,34.92
2017-09-24T11:28:03.976Z,35.15
2017-09-24T11:29:04.015Z,35.24
2017-09-24T11:30:04.774Z,35.55
2017-09-24T11:31:04.105Z,35.6
2017-09-24T11:32:04.130Z,35.44
2017-09-24T11:33:04.163Z,35.27
2017-09-24T11:34:04.196Z,35.39
2017-09-24T11:35:04.229Z,35.49
2017-09-24T11:36:04.276Z,35.41
2017-09-24T11:37:04.370Z,35.61
2017-09-24T11:38:04.344Z,35.53
2017-09-24T11:39:04.373Z,35.86
2017-09-24T11:40:04.410Z,36
2017-09-24T11:41:04.440Z,35.95
2017-09-24T11:42:04.533Z,35.95
2017-09-24T11:43:04.553Z,36.16
2017-09-24T11:44:04.581Z,36.43
2017-09-24T11:45:04.601Z,36.35
2017-09-24T11:46:04.626Z,36.36
2017-09-24T11:47:05.206Z,36.36
2017-09-24T11:48:04.704Z,36.43
2017-09-24T11:49:04.736Z,36.16
2017-09-24T11:50:05.097Z,36.42
2017-09-24T11:51:04.813Z,36.61
2017-09-24T11:52:04.926Z,36.7
2017-09-24T11:53:04.958Z,36.58
2017-09-24T11:54:04.920Z,36.99
2017-09-24T11:55:04.960Z,37.14
2017-09-24T11:56:04.996Z,37.29
2017-09-24T11:57:05.149Z,37.21
2017-09-24T11:58:05.077Z,37.23
2017-09-24T11:59:05.116Z,37.21
2017-09-24T12:00:05.196Z,37.11
2017-09-24T12:01:05.506Z,37.25
2017-09-24T12:02:05.218Z,37.14
2017-09-24T12:03:05.738Z,37.42
2017-09-24T12:04:05.385Z,37.7
2017-09-24T12:05:05.342Z,37.77
2017-09-24T12:06:05.375Z,37.55
2017-09-24T12:07:05.470Z,37.42
2017-09-24T12:08:05.546Z,37.47
2017-09-24T12:09:05.594Z,37.82
2017-09-24T12:10:05.540Z,37.82
2017-09-24T12:11:05.569Z,38.11
2017-09-24T12:12:05.604Z,38.39
2017-09-24T12:13:05.646Z,38.76
2017-09-24T12:14:05.807Z,38.82
2017-09-24T12:15:06.389Z,38.71
2017-09-24T12:16:05.753Z,38.42
2017-09-24T12:17:05.786Z,37.53
2017-09-24T12:18:05.832Z,36.88
2017-09-24T12:19:05.864Z,36.64
2017-09-24T12:20:06.094Z,36.95
2017-09-24T12:21:05.933Z,37.15
2017-09-24T12:22:05.973Z,37.25
2017-09-24T12:23:06.004Z,37.28
2017-09-24T12:24:06.046Z,37.13
2017-09-24T12:25:06.085Z,37.58
2017-09-24T12:26:06.115Z,38.21
2017-09-24T12:27:06.158Z,38.84
2017-09-24T12:28:06.205Z,39.12
2017-09-24T12:29:06.233Z,39.38
2017-09-24T12:30:06.628Z,39.36
2017-09-24T12:31:06.306Z,38.15
2017-09-24T12:32:06.656Z,38.36
2017-09-24T12:33:06.390Z,38.68
2017-09-24T12:34:06.419Z,38.84
2017-09-24T12:35:06.497Z,39.3
2017-09-24T12:36:06.511Z,39.55
2017-09-24T12:37:06.532Z,38.83
2017-09-24T12:38:06.570Z,38.76
2017-09-24T12:39:06.606Z,38.04
2017-09-24T12:40:07.044Z,37.17
2017-09-24T12:41:06.679Z,36.57
2017-09-24T12:42:06.852Z,36.16
2017-09-24T12:43:06.749Z,35.8
2017-09-24T12:44:06.786Z,35.44
2017-09-24T12:45:06.821Z,34.97
2017-09-24T12:46:06.952Z,34.27
2017-09-24T12:47:07.203Z,33.84
2017-09-24T12:48:06.931Z,33.58
2017-09-24T12:49:06.958Z,33.19
2017-09-24T12:50:07.116Z,33.05
2017-09-24T12:51:07.034Z,32.58
2017-09-24T12:52:07.203Z,32.38
2017-09-24T12:53:07.093Z,32.56
2017-09-24T12:54:07.130Z,32.74
2017-09-24T12:55:07.315Z,33.19
2017-09-24T12:56:07.194Z,33.71
2017-09-24T12:57:07.351Z,33.95